Time;durP1;ratioP1;P1;durP2;ratioP2;P2;SDS_P1;SDS_P2;PMS_P1;PMS_P2;Temp;Humidity;BMP_temperature;BMP_pressure;BME280_temperature;BME280_humidity;BME280_pressure;Samples;Min_cycle;Max_cycle;Signal;HPM_P1;HPM_P2
2022/11/30 00:00:34;;;;;;;72.10;39.67;;;;;;;6.14;100.00;102097.25;4950296;28;20801;-89
2022/11/30 00:03:00;;;;;;;70.70;39.03;;;;;;;6.21;100.00;102107.22;4941674;28;20444;-91
2022/11/30 00:05:26;;;;;;;80.80;38.67;;;;;;;6.21;100.00;102107.22;4951242;28;20043;-92
2022/11/30 00:07:53;;;;;;;67.67;38.63;;;;;;;6.19;100.00;102103.03;4941796;28;20101;-91
2022/11/30 00:10:20;;;;;;;72.73;39.77;;;;;;;6.23;100.00;102099.84;4951632;28;20487;-90
2022/11/30 00:12:45;;;;;;;70.53;39.30;;;;;;;6.24;100.00;102106.94;4951627;28;20372;-91
2022/11/30 00:15:13;;;;;;;67.70;37.87;;;;;;;6.19;100.00;102103.03;4951196;28;20039;-90
2022/11/30 00:17:41;;;;;;;63.00;35.60;;;;;;;6.23;100.00;102099.84;4950898;28;20035;-90
2022/11/30 00:20:08;;;;;;;64.17;35.67;;;;;;;6.31;100.00;102115.25;4951611;28;20142;-91
2022/11/30 00:22:33;;;;;;;61.20;34.77;;;;;;;6.27;100.00;102110.31;4955137;28;20476;-90
2022/11/30 00:25:01;;;;;;;60.60;33.73;;;;;;;6.25;100.00;102110.47;4951179;28;20041;-90
2022/11/30 00:27:27;;;;;;;53.37;31.60;;;;;;;6.20;100.00;102110.06;4950987;28;20491;-90
2022/11/30 00:29:53;;;;;;;50.70;30.27;;;;;;;6.19;100.00;102103.03;4939885;28;20103;-90
2022/11/30 00:32:18;;;;;;;48.13;31.10;;;;;;;6.21;100.00;102118.00;4950618;28;20222;-91
2022/11/30 00:34:43;;;;;;;50.47;29.77;;;;;;;6.16;100.00;102106.00;4933704;28;20562;-90
2022/11/30 00:37:09;;;;;;;47.03;29.53;;;;;;;6.24;100.00;102109.63;4949557;28;20055;-91
2022/11/30 00:39:34;;;;;;;48.67;30.03;;;;;;;6.24;100.00;102108.78;4950348;28;20200;-90
2022/11/30 00:42:00;;;;;;;45.33;29.47;;;;;;;6.18;100.00;102101.31;4950128;28;20118;-90
2022/11/30 00:44:25;;;;;;;46.23;30.33;;;;;;;6.22;100.00;102113.47;4950269;28;20039;-91
2022/11/30 00:46:50;;;;;;;48.10;29.73;;;;;;;6.19;100.00;102106.56;4942545;28;20409;-91
2022/11/30 00:49:23;;;;;;;42.30;29.90;;;;;;;6.21;100.00;102104.53;4950225;28;20038;-90
2022/11/30 00:51:48;;;;;;;44.60;28.37;;;;;;;6.14;100.00;102099.94;4950445;28;20490;-91
2022/11/30 00:54:14;;;;;;;41.80;27.97;;;;;;;6.17;100.00;102100.44;4950327;28;20047;-91
2022/11/30 00:56:39;;;;;;;42.23;28.70;;;;;;;6.28;100.00;102120.09;4950079;28;20066;-90
2022/11/30 00:59:05;;;;;;;44.13;28.83;;;;;;;6.14;100.00;102100.78;4940485;28;20195;-90
2022/11/30 01:01:32;;;;;;;38.60;27.07;;;;;;;6.19;100.00;102106.56;4950621;28;20038;-91
2022/11/30 01:03:58;;;;;;;38.60;27.60;;;;;;;6.10;100.00;102099.38;4950073;28;20406;-92
2022/11/30 01:06:23;;;;;;;39.07;26.77;;;;;;;6.29;100.00;102125.31;4948846;28;20043;-92
2022/11/30 01:08:49;;;;;;;35.77;26.30;;;;;;;6.09;100.00;102095.00;4960338;28;20031;-92
2022/11/30 01:11:18;;;;;;;35.53;26.73;;;;;;;6.08;100.00;102096.84;4950372;28;20490;-92
2022/11/30 01:13:43;;;;;;;37.97;28.23;;;;;;;6.22;100.00;102113.47;4949846;28;20031;-92
2022/11/30 01:16:14;;;;;;;40.30;27.97;;;;;;;6.14;100.00;102124.97;4936176;28;20035;-91
2022/11/30 01:18:40;;;;;;;36.23;27.27;;;;;;;6.18;100.00;102126.38;4946751;28;20657;-90
2022/11/30 01:21:12;;;;;;;34.47;25.87;;;;;;;6.14;100.00;102116.91;4949611;28;20030;-92
2022/11/30 01:23:37;;;;;;;36.67;26.80;;;;;;;6.12;100.00;102113.53;4949830;28;20589;-92
2022/11/30 01:26:03;;;;;;;35.07;26.80;;;;;;;6.13;100.00;102115.22;4949983;28;20043;-92
2022/11/30 01:28:28;;;;;;;35.47;27.20;;;;;;;6.18;100.00;102125.53;4934677;28;20039;-92
2022/11/30 01:31:02;;;;;;;34.27;27.17;;;;;;;6.16;100.00;102124.84;4932481;28;20770;-91
2022/11/30 01:33:27;;;;;;;34.03;25.70;;;;;;;6.15;100.00;102112.41;4949667;28;20062;-91
2022/11/30 01:36:06;;;;;;;34.23;25.90;;;;;;;6.13;100.00;102122.44;4949535;28;20499;-91
2022/11/30 01:38:37;;;;;;;33.23;25.17;;;;;;;6.06;100.00;102114.13;4957671;28;20072;-91
2022/11/30 01:41:04;;;;;;;35.33;25.60;;;;;;;6.08;100.00;102117.53;4947201;28;20042;-92
2022/11/30 01:43:44;;;;;;;37.70;25.83;;;;;;;6.12;100.00;102120.75;4947468;28;20043;-91
2022/11/30 01:46:30;;;;;;;35.50;26.33;;;;;;;6.19;100.00;102130.78;4930632;28;20035;-91
2022/11/30 01:49:06;;;;;;;32.73;25.60;;;;;;;6.15;100.00;102124.00;4933110;28;20164;-91
2022/11/30 01:51:50;;;;;;;37.37;26.77;;;;;;;6.10;100.00;102120.06;4949134;28;20035;-92
2022/11/30 01:54:21;;;;;;;33.53;26.37;;;;;;;6.08;100.00;102128.31;4949664;28;20129;-91
2022/11/30 01:56:52;;;;;;;34.73;25.83;;;;;;;6.04;100.00;102126.91;4949130;28;20031;-90
2022/11/30 01:59:20;;;;;;;33.37;25.23;;;;;;;6.16;100.00;102141.84;4941381;28;20046;-90
2022/11/30 02:01:46;;;;;;;33.80;26.33;;;;;;;5.98;100.00;102130.19;4949497;28;20198;-91
2022/11/30 02:04:28;;;;;;;33.57;24.83;;;;;;;6.16;100.00;102158.00;4953146;28;20047;-91
2022/11/30 02:06:55;;;;;;;33.77;25.67;;;;;;;5.98;100.00;102144.47;4949283;28;20097;-90
2022/11/30 02:09:22;;;;;;;35.83;25.53;;;;;;;5.98;100.00;102132.88;4948707;28;20387;-91
2022/11/30 02:11:48;;;;;;;33.93;26.57;;;;;;;6.00;100.00;102144.34;4952878;28;20042;-91
2022/11/30 02:14:30;;;;;;;36.00;26.20;;;;;;;6.15;100.00;102161.66;4948720;28;20047;-91
2022/11/30 02:17:21;;;;;;;33.33;25.87;;;;;;;6.19;100.00;102157.69;4949122;28;20554;-91
2022/11/30 02:20:06;;;;;;;33.10;25.17;;;;;;;6.14;100.00;102165.34;4928289;28;20051;-90
2022/11/30 02:23:01;;;;;;;33.83;25.80;;;;;;;6.14;100.00;102159.97;4948576;28;20179;-90
2022/11/30 02:25:44;;;;;;;32.43;24.43;;;;;;;6.14;100.00;102154.59;4948950;28;20089;-91
2022/11/30 02:28:32;;;;;;;32.97;25.00;;;;;;;6.08;100.00;102126.44;4946026;28;20039;-91
2022/11/30 02:31:03;;;;;;;31.87;24.27;;;;;;;6.04;100.00;102145.75;4949025;28;20062;-91
2022/11/30 02:33:31;;;;;;;32.23;24.83;;;;;;;5.98;100.00;102143.63;4948718;28;20464;-90
2022/11/30 02:35:59;;;;;;;33.87;25.17;;;;;;;5.98;100.00;102136.41;4948247;28;20057;-91
2022/11/30 02:38:27;;;;;;;32.30;23.93;;;;;;;6.01;100.00;102143.31;4943475;28;20051;-91
2022/11/30 02:40:52;;;;;;;33.80;25.13;;;;;;;5.96;100.00;102149.13;4951655;28;20480;-91
2022/11/30 02:43:21;;;;;;;29.53;24.00;;;;;;;5.99;100.00;102150.72;4951921;28;20042;-90
2022/11/30 02:46:00;;;;;;;33.00;24.50;;;;;;;5.94;100.00;102144.91;4935215;28;20033;-90
2022/11/30 02:48:53;;;;;;;33.53;24.87;;;;;;;5.86;100.00;102130.34;4932452;28;20210;-90
2022/11/30 02:51:23;;;;;;;33.93;25.10;;;;;;;5.95;100.00;102144.75;4950164;28;20043;-90
2022/11/30 02:53:49;;;;;;;33.27;24.77;;;;;;;5.99;100.00;102153.41;4950652;28;20089;-89
2022/11/30 02:56:16;;;;;;;32.43;25.13;;;;;;;6.01;100.00;102156.78;4950235;28;20043;-88
2022/11/30 02:58:41;;;;;;;32.30;24.87;;;;;;;5.91;100.00;102136.13;4950434;28;20133;-89
2022/11/30 03:01:07;;;;;;;33.13;25.00;;;;;;;5.96;100.00;102151.00;4949831;28;20044;-89
2022/11/30 03:03:32;;;;;;;31.90;25.03;;;;;;;5.96;100.00;102153.69;4953691;28;20129;-90
2022/11/30 03:05:57;;;;;;;31.80;24.47;;;;;;;5.98;100.00;102151.72;4937517;28;20069;-89
2022/11/30 03:08:23;;;;;;;32.23;24.70;;;;;;;6.01;100.00;102157.66;4949394;28;20117;-90
2022/11/30 03:10:50;;;;;;;31.27;24.10;;;;;;;6.10;100.00;102172.03;4948889;28;20042;-89
2022/11/30 03:13:15;;;;;;;32.40;23.87;;;;;;;5.99;100.00;102161.47;4949732;28;20043;-89
2022/11/30 03:15:40;;;;;;;30.17;24.13;;;;;;;6.04;100.00;102164.56;4951118;28;20505;-89
2022/11/30 03:18:06;;;;;;;30.73;23.50;;;;;;;6.00;100.00;102153.25;4935182;28;20035;-89
2022/11/30 03:20:31;;;;;;;28.00;22.77;;;;;;;5.99;100.00;102148.03;4952821;28;20043;-89
2022/11/30 03:23:00;;;;;;;28.37;22.93;;;;;;;6.00;100.00;102147.03;4942928;28;20042;-88
2022/11/30 03:25:26;;;;;;;29.80;23.70;;;;;;;6.01;100.00;102159.47;4953053;28;20039;-89
2022/11/30 03:27:51;;;;;;;30.00;24.37;;;;;;;5.88;100.00;102136.41;4937383;28;20049;-88
2022/11/30 03:30:17;;;;;;;30.57;25.03;;;;;;;5.95;100.00;102151.97;4931605;28;20089;-89
2022/11/30 03:32:42;;;;;;;31.83;24.17;;;;;;;6.05;100.00;102175.19;4952835;28;20519;-89
2022/11/30 03:35:08;;;;;;;29.13;24.00;;;;;;;5.94;100.00;102153.81;4951341;28;20046;-89
2022/11/30 03:37:33;;;;;;;30.97;24.47;;;;;;;5.92;100.00;102151.25;4953123;28;20059;-90
2022/11/30 03:39:58;;;;;;;30.00;23.87;;;;;;;5.93;100.00;102144.06;4945868;28;21470;-91
2022/11/30 03:42:24;;;;;;;31.77;24.30;;;;;;;5.89;100.00;102146.19;4951752;28;20500;-91
2022/11/30 03:44:49;;;;;;;30.17;24.63;;;;;;;5.80;100.00;102144.38;4951622;28;20061;-89
2022/11/30 03:47:14;;;;;;;30.83;24.47;;;;;;;5.98;100.00;102151.72;4951698;28;20106;-90
2022/11/30 03:49:40;;;;;;;31.37;23.70;;;;;;;6.04;100.00;102170.78;4951421;28;20047;-89
2022/11/30 03:52:05;;;;;;;30.23;23.27;;;;;;;5.84;100.00;102159.25;4951651;28;20063;-90
2022/11/30 03:54:31;;;;;;;34.57;24.73;;;;;;;5.89;100.00;102161.50;4938134;28;20035;-89
2022/11/30 03:56:56;;;;;;;32.40;24.20;;;;;;;5.84;100.00;102161.94;4940594;28;20046;-88
2022/11/30 03:59:21;;;;;;;30.50;23.63;;;;;;;5.91;100.00;102164.88;4954318;28;20089;-89
2022/11/30 04:01:47;;;;;;;31.30;23.63;;;;;;;5.95;100.00;102166.25;4951548;28;20200;-89
2022/11/30 04:04:12;;;;;;;30.00;24.10;;;;;;;5.95;100.00;102154.66;4949063;28;20562;-89
2022/11/30 04:06:39;;;;;;;30.37;24.60;;;;;;;5.95;100.00;102160.06;4950953;28;20605;-90
2022/11/30 04:09:05;;;;;;;31.37;24.23;;;;;;;5.98;100.00;102170.53;4951538;28;20035;-88
2022/11/30 04:11:30;;;;;;;29.27;23.50;;;;;;;5.90;100.00;102153.28;4951262;28;20470;-89
2022/11/30 04:13:56;;;;;;;29.47;23.87;;;;;;;5.91;100.00;102164.88;4949199;28;20148;-89
2022/11/30 04:16:21;;;;;;;29.83;24.10;;;;;;;5.88;100.00;102168.69;4951223;28;20190;-89
2022/11/30 04:18:47;;;;;;;30.60;24.93;;;;;;;6.00;100.00;102179.31;4935903;28;20039;-89
2022/11/30 04:21:12;;;;;;;30.27;23.37;;;;;;;5.82;100.00;102161.25;4951477;28;20035;-90
2022/11/30 04:23:39;;;;;;;31.33;24.47;;;;;;;5.83;100.00;102162.91;4941284;28;20464;-90
2022/11/30 04:26:10;;;;;;;29.73;23.63;;;;;;;5.86;100.00;102164.47;4951055;28;20391;-90
2022/11/30 04:28:35;;;;;;;29.60;23.40;;;;;;;5.95;100.00;102184.25;4950758;28;20050;-90
2022/11/30 04:31:01;;;;;;;32.77;24.17;;;;;;;5.77;100.00;102158.13;4941585;28;20121;-89
2022/11/30 04:33:27;;;;;;;31.00;24.03;;;;;;;5.75;100.00;102160.13;4939962;28;20031;-89
2022/11/30 04:35:55;;;;;;;29.90;23.73;;;;;;;5.77;100.00;102155.44;4950365;28;20265;-89
2022/11/30 04:38:22;;;;;;;32.77;25.27;;;;;;;5.75;100.00;102162.81;4951498;28;20057;-89
2022/11/30 04:40:48;;;;;;;30.20;24.43;;;;;;;5.85;100.00;102160.09;4950058;28;20093;-91
2022/11/30 04:43:14;;;;;;;31.83;23.67;;;;;;;5.78;100.00;102150.91;4951525;28;20035;-90
2022/11/30 04:45:39;;;;;;;30.87;24.87;;;;;;;5.74;100.00;102143.16;4960228;28;20035;-90
2022/11/30 04:48:05;;;;;;;31.80;24.10;;;;;;;5.67;100.00;102151.94;4951360;28;20041;-91
2022/11/30 04:50:31;;;;;;;29.00;22.97;;;;;;;5.65;100.00;102148.56;4933282;28;20443;-90
2022/11/30 04:52:57;;;;;;;29.30;22.47;;;;;;;5.69;100.00;102166.09;4951211;28;20042;-89
2022/11/30 04:55:22;;;;;;;29.60;24.50;;;;;;;5.64;100.00;102150.38;4951303;28;20125;-90
2022/11/30 04:57:48;;;;;;;28.03;23.30;;;;;;;5.79;100.00;102161.50;4949193;28;20113;-89
2022/11/30 05:00:15;;;;;;;28.27;22.20;;;;;;;5.64;100.00;102163.00;4950951;28;20073;-90
2022/11/30 05:02:42;;;;;;;25.43;21.63;;;;;;;5.74;100.00;102170.03;4951147;28;20035;-90
2022/11/30 05:05:07;;;;;;;29.23;22.50;;;;;;;5.69;100.00;102168.78;4950572;28;20463;-89
2022/11/30 05:07:33;;;;;;;28.70;22.80;;;;;;;5.68;100.00;102164.41;4950880;28;20045;-90
2022/11/30 05:09:58;;;;;;;27.57;22.00;;;;;;;5.80;100.00;102173.97;4951275;28;20141;-90
2022/11/30 05:12:24;;;;;;;30.87;24.33;;;;;;;5.66;100.00;102167.25;4940412;28;20091;-90
2022/11/30 05:14:49;;;;;;;31.53;23.83;;;;;;;5.67;100.00;102162.69;4949904;28;20051;-90
2022/11/30 05:17:14;;;;;;;29.10;24.63;;;;;;;5.79;100.00;102188.41;4950167;28;20039;-89
2022/11/30 05:19:40;;;;;;;29.53;24.57;;;;;;;5.60;100.00;102158.91;4949847;28;20035;-91
2022/11/30 05:22:05;;;;;;;30.03;23.73;;;;;;;5.69;100.00;102175.00;4950083;28;20038;-90
2022/11/30 05:24:30;;;;;;;28.30;23.17;;;;;;;5.63;100.00;102170.22;4949690;28;20125;-91
2022/11/30 05:26:56;;;;;;;29.20;23.63;;;;;;;5.66;100.00;102177.16;4933267;28;20159;-90
2022/11/30 05:29:21;;;;;;;29.10;23.20;;;;;;;5.68;100.00;102178.69;4949588;28;20034;-91
2022/11/30 05:31:47;;;;;;;29.17;24.67;;;;;;;5.79;100.00;102191.09;4947856;28;20055;-91
2022/11/30 05:34:12;;;;;;;31.77;25.53;;;;;;;5.69;100.00;102182.22;4946831;28;20039;-90
2022/11/30 05:36:38;;;;;;;30.63;24.13;;;;;;;5.67;100.00;102174.31;4961374;28;20375;-90
2022/11/30 05:39:03;;;;;;;29.63;24.33;;;;;;;5.69;100.00;102187.63;4945397;28;20486;-91
2022/11/30 05:41:29;;;;;;;30.73;25.87;;;;;;;5.66;100.00;102179.84;4951841;28;20081;-91
2022/11/30 05:43:55;;;;;;;29.50;24.20;;;;;;;5.59;100.00;102176.91;4948069;28;20713;-91
2022/11/30 05:46:20;;;;;;;31.70;24.97;;;;;;;5.57;100.00;102187.75;4948122;28;20374;-90
2022/11/30 05:48:46;;;;;;;31.03;24.20;;;;;;;5.58;100.00;102196.69;4951517;28;20157;-90
2022/11/30 05:51:16;;;;;;;30.13;23.43;;;;;;;5.60;100.00;102185.78;4951089;28;20769;-92
2022/11/30 05:53:43;;;;;;;28.13;23.97;;;;;;;5.54;100.00;102184.53;4951501;28;20162;-91
2022/11/30 05:56:13;;;;;;;30.97;24.83;;;;;;;5.51;100.00;102190.22;4950155;28;20187;-91
2022/11/30 05:58:39;;;;;;;28.83;24.43;;;;;;;5.52;100.00;102187.38;4950541;28;20090;-91
2022/11/30 06:01:05;;;;;;;29.93;24.07;;;;;;;5.47;100.00;102192.34;4949049;28;20047;-92
2022/11/30 06:03:32;;;;;;;29.97;24.30;;;;;;;5.51;100.00;102201.81;4951018;28;20424;-92
2022/11/30 06:05:58;;;;;;;27.73;22.53;;;;;;;5.50;100.00;102193.91;4951385;28;20107;-89
2022/11/30 06:08:25;;;;;;;30.23;23.20;;;;;;;5.44;100.00;102189.94;4939953;28;20051;-90
2022/11/30 06:10:51;;;;;;;29.97;24.10;;;;;;;5.40;100.00;102194.75;4950494;28;20039;-90
2022/11/30 06:13:16;;;;;;;31.50;24.73;;;;;;;5.54;100.00;102217.66;4948390;28;20058;-90
2022/11/30 06:15:42;;;;;;;32.07;25.43;;;;;;;5.41;100.00;102196.47;4932926;28;20443;-90
2022/11/30 06:18:10;;;;;;;36.33;26.97;;;;;;;5.40;100.00;102207.34;4950773;28;20045;-88
2022/11/30 06:20:35;;;;;;;33.70;26.93;;;;;;;5.46;100.00;102209.44;4941071;28;20051;-89
2022/11/30 06:23:01;;;;;;;36.03;28.17;;;;;;;5.60;100.00;102216.22;4950396;28;20038;-88
2022/11/30 06:25:26;;;;;;;39.27;28.43;;;;;;;5.44;100.00;102195.31;4950767;28;20047;-88
2022/11/30 06:27:52;;;;;;;34.87;26.97;;;;;;;5.44;100.00;102189.94;4939770;28;20497;-89
2022/11/30 06:30:17;;;;;;;32.33;26.60;;;;;;;5.47;100.00;102205.78;4932513;28;20094;-88
2022/11/30 06:32:47;;;;;;;34.07;27.13;;;;;;;5.48;100.00;102206.63;4950562;28;20085;-88
2022/11/30 06:35:12;;;;;;;34.90;27.33;;;;;;;5.44;100.00;102206.06;4932604;28;20070;-89
2022/11/30 06:37:38;;;;;;;39.20;29.43;;;;;;;5.53;100.00;102209.72;4939356;28;20145;-89
2022/11/30 06:40:04;;;;;;;35.80;28.90;;;;;;;5.43;100.00;102204.38;4939088;28;20043;-89
2022/11/30 06:42:30;;;;;;;36.10;28.53;;;;;;;5.55;100.00;102224.72;4937656;28;20073;-89
2022/11/30 06:44:56;;;;;;;38.30;29.07;;;;;;;5.45;100.00;102201.53;4950192;28;20054;-89
2022/11/30 06:47:21;;;;;;;36.33;28.67;;;;;;;5.50;100.00;102210.84;4950725;28;20391;-89
2022/11/30 06:49:46;;;;;;;41.17;27.60;;;;;;;5.50;100.00;102215.41;4939554;28;21034;-89
2022/11/30 06:52:12;;;;;;;31.50;25.13;;;;;;;5.45;100.00;102212.28;4933167;28;20039;-89
2022/11/30 06:54:37;;;;;;;31.67;25.43;;;;;;;5.44;100.00;102221.34;4946973;28;20046;-90
2022/11/30 06:57:03;;;;;;;31.77;26.33;;;;;;;5.36;100.00;102211.34;4950418;28;20030;-89
2022/11/30 06:59:28;;;;;;;30.83;25.23;;;;;;;5.41;100.00;102227.84;4950858;28;20066;-90
2022/11/30 07:01:53;;;;;;;32.40;25.03;;;;;;;5.22;100.00;102217.97;4939510;28;20050;-90
2022/11/30 07:04:19;;;;;;;28.97;23.80;;;;;;;5.23;100.00;102225.03;4950163;28;20676;-90
2022/11/30 07:06:44;;;;;;;33.30;26.80;;;;;;;5.35;100.00;102245.41;4950079;28;20660;-90
2022/11/30 07:09:12;;;;;;;31.07;26.07;;;;;;;5.14;100.00;102216.00;4937405;28;21456;-89
2022/11/30 07:11:37;;;;;;;30.43;24.20;;;;;;;5.07;100.00;102222.94;4953256;28;20126;-89
2022/11/30 07:14:02;;;;;;;30.07;24.33;;;;;;;5.06;100.00;102229.31;4953218;28;20046;-90
2022/11/30 07:16:28;;;;;;;110.17;24.10;;;;;;;4.96;100.00;102228.44;4960665;28;20046;-91
2022/11/30 07:18:53;;;;;;;43.10;21.80;;;;;;;4.97;100.00;102236.34;4954190;28;20157;-91
2022/11/30 07:21:19;;;;;;;25.47;21.97;;;;;;;5.13;100.00;102260.00;4954538;28;20046;-91
2022/11/30 07:26:28;;;;;;;28.92;22.90;;;;;;;4.92;100.00;102240.47;4964116;28;20120;-91
2022/11/30 07:28:56;;;;;;;31.03;25.83;;;;;;;5.01;100.00;102253.06;4945224;28;20043;-89
2022/11/30 07:31:26;;;;;;;26.23;22.20;;;;;;;5.00;100.00;102254.03;4952527;28;20022;-91
2022/11/30 07:33:52;;;;;;;24.93;21.03;;;;;;;5.02;100.00;102262.81;4952183;28;20137;-91
2022/11/30 07:36:19;;;;;;;24.57;20.43;;;;;;;4.94;100.00;102249.22;4942740;28;20043;-91
2022/11/30 07:38:45;;;;;;;26.37;20.00;;;;;;;4.96;100.00;102266.06;4940373;28;20051;-91
2022/11/30 07:41:11;;;;;;;24.57;19.90;;;;;;;5.11;100.00;102286.13;4953111;28;20046;-90
2022/11/30 07:43:36;;;;;;;25.87;21.37;;;;;;;5.01;100.00;102275.38;4949539;28;20030;-90
2022/11/30 07:46:02;;;;;;;23.60;18.43;;;;;;;5.03;100.00;102273.41;4953429;28;20051;-91
2022/11/30 07:48:28;;;;;;;23.03;18.30;;;;;;;5.04;100.00;102268.88;4937793;28;20604;-91
2022/11/30 07:51:00;;;;;;;22.53;18.20;;;;;;;4.93;100.00;102258.28;4954170;28;20130;-91
2022/11/30 07:53:25;;;;;;;23.57;18.80;;;;;;;5.08;100.00;102281.88;4938069;28;20031;-91
2022/11/30 07:55:51;;;;;;;26.23;21.43;;;;;;;5.08;100.00;102286.41;4944570;28;20038;-91
2022/11/30 07:58:16;;;;;;;30.27;22.03;;;;;;;4.99;100.00;102271.13;4971467;28;20162;-91
2022/11/30 08:00:42;;;;;;;27.97;22.47;;;;;;;5.00;100.00;102262.94;4952603;28;20041;-91
2022/11/30 08:03:07;;;;;;;35.37;27.63;;;;;;;5.28;100.00;102292.66;4952260;28;20081;-91
2022/11/30 08:05:32;;;;;;;32.57;25.90;;;;;;;5.27;100.00;102284.75;4939125;28;20558;-91
2022/11/30 08:07:58;;;;;;;34.10;27.33;;;;;;;5.37;100.00;102280.19;4952590;28;20085;-91
2022/11/30 08:10:23;;;;;;;33.17;26.77;;;;;;;5.38;100.00;102272.00;4952378;28;20395;-92
2022/11/30 08:12:49;;;;;;;33.03;27.73;;;;;;;5.68;100.00;102302.38;4952449;28;20572;-91
2022/11/30 08:15:15;;;;;;;46.20;41.20;;;;;;;5.74;100.00;102287.53;4952871;28;20464;-91
2022/11/30 08:17:41;;;;;;;38.17;32.77;;;;;;;5.80;100.00;102294.19;4942259;28;20403;-91
2022/11/30 08:20:08;;;;;;;38.67;32.53;;;;;;;5.94;100.00;102300.94;4951900;28;20023;-91
2022/11/30 08:22:34;;;;;;;39.33;33.73;;;;;;;5.94;100.00;102298.25;4934531;28;20041;-91
2022/11/30 08:25:00;;;;;;;37.43;31.03;;;;;;;5.95;100.00;102290.03;4949535;28;20051;-91
2022/11/30 08:27:25;;;;;;;34.10;28.10;;;;;;;5.95;100.00;102290.03;4951753;28;20026;-91
2022/11/30 08:29:51;;;;;;;39.50;33.40;;;;;;;5.90;100.00;102303.91;4949430;28;20578;-91
2022/11/30 08:32:17;;;;;;;33.40;28.90;;;;;;;5.84;100.00;102291.03;4941419;28;20034;-91
2022/11/30 08:34:42;;;;;;;31.73;26.17;;;;;;;6.01;100.00;102321.78;4951609;28;20035;-91
2022/11/30 08:37:08;;;;;;;33.43;28.00;;;;;;;5.90;100.00;102308.44;4952324;28;21371;-91
2022/11/30 08:39:33;;;;;;;32.03;26.30;;;;;;;5.78;100.00;102298.84;4939452;28;20093;-91
2022/11/30 08:42:00;;;;;;;30.60;26.37;;;;;;;5.79;100.00;102309.44;4951622;28;20070;-91
2022/11/30 08:44:26;;;;;;;32.67;28.40;;;;;;;5.82;100.00;102311.00;4940887;28;20035;-91
2022/11/30 08:46:52;;;;;;;32.83;27.17;;;;;;;5.81;100.00;102317.41;4948488;28;20039;-91
2022/11/30 08:49:17;;;;;;;31.83;25.63;;;;;;;5.72;100.00;102309.16;4952126;28;20034;-91
2022/11/30 08:51:43;;;;;;;32.47;27.60;;;;;;;5.78;100.00;102320.34;4951267;28;20485;-91
2022/11/30 08:54:08;;;;;;;31.60;26.60;;;;;;;5.85;100.00;102333.09;4951355;28;20047;-91
2022/11/30 08:56:33;;;;;;;33.53;29.83;;;;;;;5.81;100.00;102309.31;4949057;28;20319;-91
2022/11/30 08:58:59;;;;;;;36.13;30.23;;;;;;;5.90;100.00;102309.31;4949767;28;20129;-90
2022/11/30 09:01:25;;;;;;;34.80;31.13;;;;;;;6.05;100.00;102309.72;4938158;28;20039;-91
2022/11/30 09:03:53;;;;;;;37.80;33.90;;;;;;;6.25;100.00;102317.72;4949795;28;20109;-91
2022/11/30 09:06:21;;;;;;;34.77;30.87;;;;;;;6.51;100.00;102325.97;4950101;28;20038;-91
2022/11/30 09:08:49;;;;;;;35.13;31.33;;;;;;;6.44;100.00;102326.75;4950260;28;20383;-91
2022/11/30 09:11:29;;;;;;;33.67;29.50;;;;;;;6.80;100.00;102319.63;4947666;28;20059;-91
2022/11/30 09:13:58;;;;;;;31.90;28.20;;;;;;;6.96;100.00;102327.00;4949606;28;20122;-91
2022/11/30 09:16:24;;;;;;;29.80;26.60;;;;;;;6.99;100.00;102318.66;4947745;28;20605;-91
2022/11/30 09:18:50;;;;;;;30.17;26.87;;;;;;;7.03;100.00;102338.03;4949573;28;20034;-91
2022/11/30 09:21:18;;;;;;;29.57;26.07;;;;;;;6.90;100.00;102333.03;4956954;28;20070;-91
2022/11/30 09:23:44;;;;;;;34.53;30.87;;;;;;;6.91;100.00;102335.56;4961327;28;20027;-90
2022/11/30 09:26:12;;;;;;;34.77;31.07;;;;;;;7.08;100.00;102360.84;4971495;28;20117;-90
2022/11/30 09:28:38;;;;;;;33.57;28.73;;;;;;;6.77;100.00;102338.75;4963146;28;20345;-91
2022/11/30 09:31:05;;;;;;;32.67;29.17;;;;;;;6.89;100.00;102348.31;4970437;28;20061;-90
2022/11/30 09:33:31;;;;;;;32.70;28.57;;;;;;;6.81;100.00;102345.53;4947750;28;20027;-90
2022/11/30 09:36:02;;;;;;;31.37;27.67;;;;;;;6.75;100.00;102356.94;4956858;28;20089;-91
2022/11/30 09:38:27;;;;;;;34.43;29.37;;;;;;;6.62;100.00;102353.72;4964620;28;20126;-90
2022/11/30 09:40:55;;;;;;;36.70;32.43;;;;;;;6.59;100.00;102339.56;4959192;28;20418;-90
2022/11/30 09:43:52;;;;;;;76.33;69.17;;;;;;;6.78;100.00;102345.84;4944286;29;20106;-90
2022/11/30 09:46:27;;;;;;;66.87;60.67;;;;;;;6.66;100.00;102330.88;4943098;28;20039;-90
2022/11/30 09:48:55;;;;;;;36.55;32.55;;;;;;;6.89;100.00;102355.56;4956382;28;20031;-90
2022/11/30 09:51:43;;;;;;;34.10;30.27;;;;;;;6.85;100.00;102341.53;4974179;28;20035;-90
2022/11/30 09:54:15;;;;;;;36.83;32.90;;;;;;;6.81;100.00;102336.63;4970010;28;20022;-90
2022/11/30 09:56:42;;;;;;;32.80;28.53;;;;;;;6.79;100.00;102342.16;4967986;28;20383;-90
2022/11/30 09:59:28;;;;;;;32.97;29.37;;;;;;;6.81;100.00;102340.16;4965748;28;20031;-91
2022/11/30 10:01:55;;;;;;;32.73;28.00;;;;;;;6.81;100.00;102345.53;4951676;28;20389;-91
2022/11/30 10:04:26;;;;;;;35.93;31.77;;;;;;;6.86;100.00;102353.19;4949771;28;20043;-91
2022/11/30 10:07:08;;;;;;;35.30;29.00;;;;;;;6.75;100.00;102338.06;4947699;28;20031;-90
2022/11/30 10:10:03;;;;;;;33.67;29.33;;;;;;;6.86;100.00;102354.03;4948942;28;20045;-90
2022/11/30 10:12:41;;;;;;;33.38;28.05;;;;;;;6.69;100.00;102330.56;4934170;28;20066;-90
2022/11/30 10:15:23;;;;;;;34.50;29.27;;;;;;;6.80;100.00;102343.88;4949405;28;20483;-90
2022/11/30 10:18:13;;;;;;;39.57;35.27;;;;;;;6.74;100.00;102328.28;4950929;28;20027;-90
2022/11/30 10:20:53;;;;;;;35.97;30.57;;;;;;;6.95;100.00;102351.41;4950419;28;20039;-90
2022/11/30 10:23:40;;;;;;;35.30;31.10;;;;;;;6.98;100.00;102345.75;4937727;28;20062;-90
2022/11/30 10:26:14;;;;;;;38.00;33.43;;;;;;;6.72;100.00;102319.53;4938322;28;20035;-90
2022/11/30 10:28:53;;;;;;;36.95;32.83;;;;;;;6.86;100.00;102326.25;4950059;28;20035;-91
2022/11/30 10:31:31;;;;;;;35.63;31.77;;;;;;;6.75;100.00;102305.75;4951070;28;20349;-90
2022/11/30 10:34:10;;;;;;;34.77;29.70;;;;;;;6.79;100.00;102312.53;4950346;28;20070;-91
2022/11/30 10:36:40;;;;;;;35.97;30.07;;;;;;;6.74;100.00;102312.97;4951003;28;20475;-92
2022/11/30 10:39:32;;;;;;;35.00;29.87;;;;;;;6.86;100.00;102329.78;4941636;28;20559;-93
2022/11/30 10:42:13;;;;;;;36.97;31.03;;;;;;;6.71;100.00;102317.81;4928125;28;20063;-91
2022/11/30 10:44:43;;;;;;;34.47;29.37;;;;;;;6.70;100.00;102326.88;4939224;28;20035;-90
2022/11/30 10:47:21;;;;;;;34.90;29.80;;;;;;;6.61;100.00;102333.16;4955680;28;20042;-91
2022/11/30 10:49:51;;;;;;;37.13;30.60;;;;;;;6.60;100.00;102316.16;4954483;28;20035;-91
2022/11/30 10:52:23;;;;;;;39.13;31.47;;;;;;;6.71;100.00;102328.59;4940972;28;20035;-90
2022/11/30 10:54:52;;;;;;;40.27;32.33;;;;;;;6.56;100.00;102304.84;4954175;28;20049;-90
2022/11/30 10:57:17;;;;;;;38.77;33.87;;;;;;;6.70;100.00;102327.72;4937470;28;20788;-91
2022/11/30 10:59:49;;;;;;;38.93;32.10;;;;;;;6.95;100.00;102335.25;4955160;28;20042;-92
2022/11/30 11:02:33;;;;;;;38.80;32.67;;;;;;;6.95;100.00;102335.25;4955210;28;20555;-92
2022/11/30 11:05:11;;;;;;;39.10;32.78;;;;;;;7.02;100.00;102337.19;4954084;28;20042;-91
2022/11/30 11:07:50;;;;;;;37.07;32.43;;;;;;;6.86;100.00;102316.31;4955038;28;20039;-94
2022/11/30 11:10:19;;;;;;;37.53;31.50;;;;;;;6.87;100.00;102311.78;4954382;28;20035;-90
2022/11/30 11:12:53;;;;;;;34.17;29.77;;;;;;;6.99;100.00;102331.25;4945835;28;20043;-91
2022/11/30 11:15:20;;;;;;;33.38;29.73;;;;;;;6.92;100.00;102322.94;4954467;28;21378;-91
2022/11/30 11:17:47;;;;;;;33.57;29.70;;;;;;;6.84;100.00;102307.53;4945351;28;20364;-92